Pagrindinis puslapis
METAR-TAF:

METAR-TAF

Oro uostai :

Orlando Sanford International Airport

Orlandas, Florida, Jungtinės Amerikos Valstijos

platuma: 28-47N, ilguma: 081-15W, Aukštis: 17 m

Dabartinis oras

Ataskaita buvo paskelbta 13 minutes, ne 21:53 UTC
Vėjas 11 kt iš Rytų/Šiaurės Rytų
Temperatūra 26°C
Drėgmė 42%
Slėgis 1018 hPa
Matomumas: 16.1 km
Giedras dangus

METAR: KSFB 082153Z 07011KT 10SM CLR 26/12 A3007 RMK AO2 SLP180 T02610117

Laikas: 18:06 (22:06 UTC)

Prognozė

Ataskaita buvo paskelbta 4 valandos ir 46 minutes, ne 17:20 UTC
Prognozė galioja nuo 08 metu 18 UTC su 09 metu 18 UTC
Vėjas 8 kt iš Šiaurės/Šiaurės Rytų
Matomumas: 10 km
Giedras dangus
Nuo 08 metu 2100 UTC
Vėjas 9 kt iš Rytų
Matomumas: 10 km
Giedras dangus
Nuo 09 metu 0200 UTC
Vėjas 4 kt iš Rytų/Pietryčių
Matomumas: 10 km
Giedras dangus
Nuo 09 metu 1400 UTC
Vėjas 8 kt iš Pietryčių
Matomumas: 10 km
Mažai debesys ne aukštis 4000 ft

TAF: KSFB 081720Z 0818/0918 03008KT P6SM SKC FM082100 08009KT P6SM SKC FM090200 11004KT P6SM SKC FM091400 14008KT P6SM FEW040

Orai ataskaitas ir orų prognozės (METAR, TAF).

turimą stotys yra geltonos ir raudonos taškus žemėlapyje.

Perkelti pele per norėdami pamatyti stoties vardą.

Tada spustelėkite, norėdami matyti oro stebėjimo ir prognozės.

Norėdami pakeisti žemėlapį: spustelėkite ant žalios mygtukų su juodo kryžiaus žemyn,; žalią mygtuką su brūkšneliu, jei norite nutolinti; arba žalių rodyklių gretimoms žemėlapius.


METAR-TAF: